createdAt,value
2018-07-03T00:00:16.862Z,1032.62
2018-07-03T00:01:16.855Z,1032.61
2018-07-03T00:02:16.844Z,1032.66
2018-07-03T00:03:16.840Z,1032.61
2018-07-03T00:04:16.832Z,1032.62
2018-07-03T00:05:16.826Z,1032.67
2018-07-03T00:06:16.819Z,1032.67
2018-07-03T00:07:16.813Z,1032.69
2018-07-03T00:08:16.807Z,1032.7
2018-07-03T00:09:16.800Z,1032.73
2018-07-03T00:10:16.793Z,1032.7
2018-07-03T00:11:16.788Z,1032.72
2018-07-03T00:12:16.783Z,1032.67
2018-07-03T00:13:16.775Z,1032.68
2018-07-03T00:14:16.769Z,1032.65
2018-07-03T00:15:16.763Z,1032.64
2018-07-03T00:16:16.758Z,1032.64
2018-07-03T00:17:16.749Z,1032.71
2018-07-03T00:18:16.745Z,1032.74
2018-07-03T00:19:16.736Z,1032.72
2018-07-03T00:20:16.733Z,1032.74
2018-07-03T00:21:16.723Z,1032.77
2018-07-03T00:22:16.717Z,1032.78
2018-07-03T00:23:16.710Z,1032.77
2018-07-03T00:24:16.705Z,1032.78
2018-07-03T00:25:16.705Z,1032.77
2018-07-03T00:26:16.691Z,1032.82
2018-07-03T00:27:16.684Z,1032.8
2018-07-03T00:28:16.677Z,1032.79
2018-07-03T00:29:16.671Z,1032.78
2018-07-03T00:30:16.665Z,1032.79
2018-07-03T00:31:16.658Z,1032.76
2018-07-03T00:32:16.651Z,1032.79
2018-07-03T00:33:16.644Z,1032.78
2018-07-03T00:34:16.638Z,1032.75
2018-07-03T00:35:16.631Z,1032.75
2018-07-03T00:36:16.625Z,1032.75
2018-07-03T00:37:16.619Z,1032.75
2018-07-03T00:38:16.611Z,1032.75
2018-07-03T00:39:16.605Z,1032.71
2018-07-03T00:40:16.598Z,1032.79
2018-07-03T00:41:16.592Z,1032.8
2018-07-03T00:42:16.584Z,1032.8
2018-07-03T00:43:16.578Z,1032.8
2018-07-03T00:44:16.572Z,1032.84
2018-07-03T00:45:16.565Z,1032.78
2018-07-03T00:46:16.558Z,1032.87
2018-07-03T00:47:16.554Z,1032.79
2018-07-03T00:48:16.545Z,1032.82
2018-07-03T00:49:16.538Z,1032.82
2018-07-03T00:50:16.531Z,1032.83
2018-07-03T00:51:16.524Z,1032.81
2018-07-03T00:52:16.518Z,1032.8
2018-07-03T00:53:16.511Z,1032.81
2018-07-03T00:54:16.523Z,1032.8
2018-07-03T00:55:16.497Z,1032.83
2018-07-03T00:56:16.491Z,1032.84
2018-07-03T00:57:16.484Z,1032.83
2018-07-03T00:58:16.487Z,1032.83
2018-07-03T00:59:16.470Z,1032.83
2018-07-03T01:00:16.463Z,1032.83
2018-07-03T01:01:16.461Z,1032.82
2018-07-03T01:02:16.463Z,1032.85
2018-07-03T01:03:16.443Z,1032.86
2018-07-03T01:04:16.447Z,1032.87
2018-07-03T01:05:16.429Z,1032.83
2018-07-03T01:06:16.423Z,1032.87
2018-07-03T01:07:16.416Z,1032.82
2018-07-03T01:08:16.409Z,1032.81
2018-07-03T01:09:16.402Z,1032.85
2018-07-03T01:10:16.395Z,1032.83
2018-07-03T01:11:16.388Z,1032.85
2018-07-03T01:12:16.384Z,1032.83
2018-07-03T01:13:16.380Z,1032.81
2018-07-03T01:14:16.369Z,1032.77
2018-07-03T01:15:16.360Z,1032.75
2018-07-03T01:16:16.354Z,1032.74
2018-07-03T01:17:16.347Z,1032.72
2018-07-03T01:18:16.341Z,1032.73
2018-07-03T01:19:16.336Z,1032.73
2018-07-03T01:20:16.326Z,1032.72
2018-07-03T01:21:16.320Z,1032.68
2018-07-03T01:22:16.313Z,1032.69
2018-07-03T01:23:16.306Z,1032.73
2018-07-03T01:24:16.299Z,1032.65
2018-07-03T01:25:16.293Z,1032.63
2018-07-03T01:26:16.285Z,1032.7
2018-07-03T01:27:16.278Z,1032.66
2018-07-03T01:28:16.272Z,1032.69
2018-07-03T01:29:16.266Z,1032.63
2018-07-03T01:30:16.297Z,1032.63
2018-07-03T01:31:16.251Z,1032.61
2018-07-03T01:32:16.246Z,1032.7
2018-07-03T01:33:16.238Z,1032.64
2018-07-03T01:34:16.231Z,1032.64
2018-07-03T01:35:16.224Z,1032.64
2018-07-03T01:36:16.282Z,1032.59
2018-07-03T01:37:16.211Z,1032.61
2018-07-03T01:38:16.204Z,1032.61
2018-07-03T01:39:16.197Z,1032.61
2018-07-03T01:40:16.191Z,1032.63
2018-07-03T01:41:16.183Z,1032.59
2018-07-03T01:42:16.176Z,1032.62
2018-07-03T01:43:16.170Z,1032.62
2018-07-03T01:44:16.163Z,1032.6
2018-07-03T01:45:16.156Z,1032.59
2018-07-03T01:46:16.149Z,1032.61
2018-07-03T01:47:16.143Z,1032.62
2018-07-03T01:48:16.135Z,1032.61
2018-07-03T01:49:16.128Z,1032.61
2018-07-03T01:50:16.122Z,1032.57
2018-07-03T01:51:16.115Z,1032.58
2018-07-03T01:52:16.108Z,1032.58
2018-07-03T01:53:16.100Z,1032.59
2018-07-03T02:00:16.049Z,1032.75
2018-07-03T02:01:16.042Z,1032.78
2018-07-03T02:02:16.034Z,1032.79
2018-07-03T02:03:16.026Z,1032.77
2018-07-03T02:04:16.018Z,1032.8
2018-07-03T02:05:16.011Z,1032.8
2018-07-03T02:06:16.003Z,1032.82
2018-07-03T02:07:15.996Z,1032.8
2018-07-03T02:08:15.988Z,1032.74
2018-07-03T02:09:15.981Z,1032.72
2018-07-03T02:10:15.973Z,1032.74
2018-07-03T02:11:15.972Z,1032.74
2018-07-03T02:12:15.959Z,1032.72
2018-07-03T02:13:15.953Z,1032.73
2018-07-03T02:14:15.944Z,1032.69
2018-07-03T02:15:15.940Z,1032.68
2018-07-03T02:16:15.930Z,1032.68
2018-07-03T02:17:15.922Z,1032.66
2018-07-03T02:18:15.915Z,1032.66
2018-07-03T02:19:15.908Z,1032.69
2018-07-03T02:20:15.902Z,1032.68
2018-07-03T02:21:15.894Z,1032.66
2018-07-03T02:22:15.891Z,1032.61
2018-07-03T02:23:15.885Z,1032.59
2018-07-03T02:24:15.873Z,1032.56
2018-07-03T02:25:15.866Z,1032.52
2018-07-03T02:26:15.860Z,1032.54
2018-07-03T02:27:15.851Z,1032.53
2018-07-03T02:28:15.845Z,1032.48
2018-07-03T02:29:15.837Z,1032.46
2018-07-03T02:30:15.832Z,1032.45
2018-07-03T02:31:15.826Z,1032.45
2018-07-03T02:32:15.816Z,1032.45
2018-07-03T02:33:15.810Z,1032.44
2018-07-03T02:34:15.803Z,1032.41
2018-07-03T02:35:15.797Z,1032.44
2018-07-03T02:36:15.795Z,1032.46
2018-07-03T02:37:15.783Z,1032.41
2018-07-03T02:38:15.785Z,1032.44
2018-07-03T02:39:15.824Z,1032.45
2018-07-03T02:40:15.762Z,1032.43
2018-07-03T02:41:15.760Z,1032.44
2018-07-03T02:42:15.748Z,1032.41
2018-07-03T02:43:15.741Z,1032.4
2018-07-03T02:44:15.735Z,1032.35
2018-07-03T02:45:15.728Z,1032.4
2018-07-03T02:46:15.719Z,1032.41
2018-07-03T02:47:15.713Z,1032.38
2018-07-03T02:48:15.706Z,1032.39
2018-07-03T02:49:15.699Z,1032.37
2018-07-03T02:50:15.692Z,1032.39
2018-07-03T02:51:15.685Z,1032.39
2018-07-03T02:52:15.683Z,1032.39
2018-07-03T02:53:15.672Z,1032.39
2018-07-03T02:54:15.663Z,1032.37
2018-07-03T02:55:15.656Z,1032.37
2018-07-03T02:56:15.652Z,1032.35
2018-07-03T02:57:15.643Z,1032.35
2018-07-03T02:58:15.637Z,1032.34
2018-07-03T02:59:15.629Z,1032.32
2018-07-03T03:00:15.623Z,1032.35
2018-07-03T03:01:15.616Z,1032.34
2018-07-03T03:02:15.608Z,1032.38
2018-07-03T03:03:15.602Z,1032.35
2018-07-03T03:04:15.596Z,1032.33
2018-07-03T03:05:15.589Z,1032.32
2018-07-03T03:06:15.581Z,1032.27
2018-07-03T03:07:15.576Z,1032.3
2018-07-03T03:08:15.600Z,1032.29
2018-07-03T03:09:15.562Z,1032.27
2018-07-03T03:10:15.554Z,1032.26
2018-07-03T03:11:15.548Z,1032.3
2018-07-03T03:12:15.546Z,1032.27
2018-07-03T03:13:15.534Z,1032.28
2018-07-03T03:14:15.528Z,1032.26
2018-07-03T03:15:15.519Z,1032.24
2018-07-03T03:16:15.513Z,1032.24
2018-07-03T03:17:15.509Z,1032.25
2018-07-03T03:18:15.500Z,1032.27
2018-07-03T03:19:15.494Z,1032.25
2018-07-03T03:20:15.486Z,1032.22
2018-07-03T03:21:15.479Z,1032.22
2018-07-03T03:22:15.473Z,1032.2
2018-07-03T03:23:15.465Z,1032.2
2018-07-03T03:24:15.459Z,1032.15
2018-07-03T03:25:15.452Z,1032.05
2018-07-03T03:26:15.444Z,1031.99
2018-07-03T03:27:15.438Z,1031.85
2018-07-03T03:28:15.434Z,1031.67
2018-07-03T03:29:15.425Z,1031.42
2018-07-03T03:30:15.418Z,1031.16
2018-07-03T03:31:15.412Z,1030.93
2018-07-03T03:32:15.405Z,1030.75
2018-07-03T03:33:15.399Z,1030.54
2018-07-03T03:34:15.392Z,1030.37
2018-07-03T03:35:15.386Z,1030.2
2018-07-03T03:36:15.389Z,1030.04
2018-07-03T03:37:15.375Z,1029.84
2018-07-03T03:38:15.369Z,1029.68
2018-07-03T03:39:15.365Z,1029.51
2018-07-03T03:40:15.359Z,1029.37
2018-07-03T03:41:15.353Z,1029.18
2018-07-03T03:42:15.349Z,1029.07
2018-07-03T03:43:15.345Z,1028.95
2018-07-03T03:44:15.341Z,1028.85
2018-07-03T03:45:15.335Z,1028.7
2018-07-03T03:46:15.332Z,1028.6
2018-07-03T03:47:15.328Z,1028.51
2018-07-03T03:48:15.325Z,1028.41
2018-07-03T03:49:15.322Z,1028.29
2018-07-03T03:50:15.319Z,1028.2
2018-07-03T03:51:15.317Z,1028.12
2018-07-03T03:52:15.313Z,1028.02
2018-07-03T03:53:15.309Z,1027.92
2018-07-03T03:54:15.309Z,1027.86
2018-07-03T03:55:15.306Z,1027.69
2018-07-03T03:56:15.303Z,1027.63
2018-07-03T03:57:15.304Z,1027.44
2018-07-03T03:58:15.304Z,1027.37
2018-07-03T03:59:15.300Z,1027.27
2018-07-03T04:00:15.297Z,1027.19
2018-07-03T04:01:15.297Z,1027.07
2018-07-03T04:02:15.445Z,1026.94
2018-07-03T04:03:15.295Z,1026.84
2018-07-03T04:04:15.294Z,1026.71
2018-07-03T04:05:15.295Z,1026.6
2018-07-03T04:06:15.296Z,1026.54
2018-07-03T04:07:15.298Z,1026.4
2018-07-03T04:08:15.296Z,1026.33
2018-07-03T04:09:15.297Z,1026.23
2018-07-03T04:10:15.297Z,1026.13
2018-07-03T04:11:15.303Z,1026.08
2018-07-03T04:12:15.301Z,1026.02
2018-07-03T04:13:15.302Z,1025.94
2018-07-03T04:14:15.304Z,1025.87
2018-07-03T04:15:15.307Z,1025.77
2018-07-03T04:16:15.310Z,1025.68
2018-07-03T04:17:15.313Z,1025.63
2018-07-03T04:18:15.315Z,1025.56
2018-07-03T04:19:15.318Z,1025.46
2018-07-03T04:20:15.323Z,1025.4
2018-07-03T04:21:15.326Z,1025.36
2018-07-03T04:22:15.330Z,1025.27
2018-07-03T04:23:15.334Z,1025.22
2018-07-03T04:24:15.341Z,1025.18
2018-07-03T04:25:15.343Z,1025.14
2018-07-03T04:26:15.348Z,1025.09
2018-07-03T04:27:15.354Z,1025.06
2018-07-03T04:28:15.359Z,1025.01
2018-07-03T04:29:15.364Z,1024.91
2018-07-03T04:30:15.370Z,1024.87
2018-07-03T04:31:15.378Z,1024.81
2018-07-03T04:32:15.386Z,1024.71
2018-07-03T04:33:15.392Z,1024.61
2018-07-03T04:34:15.397Z,1024.55
2018-07-03T04:35:15.407Z,1024.47
2018-07-03T04:36:15.410Z,1024.4
2018-07-03T04:37:15.416Z,1024.38
2018-07-03T04:38:15.425Z,1024.3
2018-07-03T04:39:15.431Z,1024.26
2018-07-03T04:40:15.440Z,1024.26
2018-07-03T04:41:15.448Z,1024.26
2018-07-03T04:42:15.455Z,1024.25
2018-07-03T04:43:15.462Z,1024.25
2018-07-03T04:44:15.469Z,1024.18
2018-07-03T04:45:15.478Z,1024.22
2018-07-03T04:46:15.487Z,1024.18
2018-07-03T04:47:15.495Z,1024.14
2018-07-03T04:48:15.502Z,1024.04
2018-07-03T04:49:15.515Z,1023.97
2018-07-03T04:50:15.519Z,1023.96
2018-07-03T04:51:15.528Z,1023.92
2018-07-03T04:52:15.538Z,1023.89
2018-07-03T04:53:15.558Z,1023.82
2018-07-03T04:54:15.554Z,1023.8
2018-07-03T04:55:15.565Z,1023.76
2018-07-03T04:56:15.575Z,1023.68
2018-07-03T04:57:15.585Z,1023.65
2018-07-03T04:58:15.593Z,1023.62
2018-07-03T04:59:15.602Z,1023.58
2018-07-03T05:00:15.615Z,1023.59
2018-07-03T05:01:15.622Z,1023.5
2018-07-03T05:02:15.631Z,1023.46
2018-07-03T05:03:15.641Z,1023.46
2018-07-03T05:04:15.652Z,1023.36
2018-07-03T05:05:15.661Z,1023.3
2018-07-03T05:06:15.673Z,1023.2
2018-07-03T05:07:15.684Z,1023.18
2018-07-03T05:08:15.694Z,1023.15
2018-07-03T05:09:15.704Z,1023.12
2018-07-03T05:10:15.716Z,1023.14
2018-07-03T05:11:15.725Z,1023.16
2018-07-03T05:12:15.737Z,1023.14
2018-07-03T05:13:15.747Z,1023.18
2018-07-03T05:14:15.759Z,1023.22
2018-07-03T05:15:15.770Z,1023.25
2018-07-03T05:16:15.782Z,1023.27
2018-07-03T05:17:15.794Z,1023.21
2018-07-03T05:18:15.805Z,1023.19
2018-07-03T05:19:15.816Z,1023.19
2018-07-03T05:20:15.831Z,1023.18
2018-07-03T05:21:15.838Z,1023.14
2018-07-03T05:22:15.851Z,1023.15
2018-07-03T05:23:15.866Z,1023.13
2018-07-03T05:24:15.876Z,1023.16
2018-07-03T05:25:15.890Z,1023.07
2018-07-03T05:26:15.900Z,1023.02
2018-07-03T05:27:15.910Z,1023.06
2018-07-03T05:28:15.924Z,1023.11
2018-07-03T05:29:15.936Z,1023.07
2018-07-03T05:30:15.949Z,1023.06
2018-07-03T05:31:15.961Z,1022.94
2018-07-03T05:32:15.978Z,1022.83
2018-07-03T05:33:15.986Z,1022.78
2018-07-03T05:34:16.000Z,1022.8
2018-07-03T05:35:16.012Z,1022.82
2018-07-03T05:36:16.026Z,1022.86
2018-07-03T05:37:16.108Z,1022.93
2018-07-03T05:38:16.052Z,1022.89
2018-07-03T05:39:16.066Z,1022.8
2018-07-03T05:40:16.080Z,1022.73
2018-07-03T05:41:16.092Z,1022.59
2018-07-03T05:42:16.105Z,1022.62
2018-07-03T05:43:16.119Z,1022.66
2018-07-03T05:44:16.135Z,1022.61
2018-07-03T05:45:16.145Z,1022.56
2018-07-03T05:46:16.160Z,1022.53
2018-07-03T05:47:16.173Z,1022.51
2018-07-03T05:48:16.188Z,1022.41
2018-07-03T05:49:16.202Z,1022.33
2018-07-03T05:50:16.216Z,1022.28
2018-07-03T05:51:16.229Z,1022.21
2018-07-03T05:52:16.247Z,1022.14
2018-07-03T05:53:16.260Z,1022.15
2018-07-03T05:54:16.274Z,1022.24
2018-07-03T05:55:16.287Z,1022.3
2018-07-03T05:56:16.353Z,1022.25
2018-07-03T05:57:16.318Z,1022.21
2018-07-03T05:58:16.332Z,1022.15
2018-07-03T05:59:16.347Z,1022.11
2018-07-03T06:00:16.361Z,1022.15
2018-07-03T06:01:16.377Z,1022.23
2018-07-03T06:02:16.392Z,1022.23
2018-07-03T06:03:16.406Z,1022.19
2018-07-03T06:04:16.421Z,1022.16
2018-07-03T06:05:16.437Z,1022.17
2018-07-03T06:06:16.453Z,1022.18
2018-07-03T06:07:16.466Z,1022.12
2018-07-03T06:08:16.486Z,1021.95
2018-07-03T06:09:16.599Z,1021.85
2018-07-03T06:10:16.515Z,1021.78
2018-07-03T06:11:16.530Z,1021.7
2018-07-03T06:12:16.796Z,1021.61
2018-07-03T06:13:16.561Z,1021.53
2018-07-03T06:14:16.578Z,1021.49
2018-07-03T06:15:16.596Z,1021.4
2018-07-03T06:16:16.615Z,1021.32
2018-07-03T06:17:16.628Z,1021.24
2018-07-03T06:18:16.643Z,1021.15
2018-07-03T06:19:16.660Z,1021.04
2018-07-03T06:20:16.677Z,1020.95
2018-07-03T06:21:16.695Z,1020.87
2018-07-03T06:22:16.710Z,1020.79
2018-07-03T06:23:16.728Z,1020.75
2018-07-03T06:24:16.745Z,1020.71
2018-07-03T06:25:16.765Z,1020.68
2018-07-03T06:26:16.778Z,1020.6
2018-07-03T06:27:16.798Z,1020.51
2018-07-03T06:28:16.816Z,1020.43
2018-07-03T06:29:16.830Z,1020.31
2018-07-03T06:30:17.099Z,1020.29
2018-07-03T06:31:16.866Z,1020.29
2018-07-03T06:32:16.884Z,1020.31
2018-07-03T06:33:16.909Z,1020.25
2018-07-03T06:34:16.920Z,1020.17
2018-07-03T06:35:16.938Z,1020.14
2018-07-03T06:36:16.956Z,1020
2018-07-03T06:37:17.003Z,1019.94
2018-07-03T06:38:16.994Z,1019.91
2018-07-03T06:39:17.017Z,1019.9
2018-07-03T06:40:17.031Z,1019.83
2018-07-03T06:41:17.049Z,1019.81
2018-07-03T06:42:17.069Z,1019.73
2018-07-03T06:43:17.090Z,1019.74
2018-07-03T06:44:17.112Z,1019.66
2018-07-03T06:45:17.125Z,1019.63
2018-07-03T06:46:17.151Z,1019.66
2018-07-03T06:47:17.199Z,1019.65
2018-07-03T06:48:17.183Z,1019.71
2018-07-03T06:49:17.204Z,1019.8
2018-07-03T06:50:17.223Z,1019.86
2018-07-03T06:51:17.243Z,1019.86
2018-07-03T06:52:17.262Z,1019.89
2018-07-03T06:53:17.282Z,1019.96
2018-07-03T06:54:17.302Z,1020.07
2018-07-03T06:55:17.322Z,1020.03
2018-07-03T06:56:17.342Z,1019.91
2018-07-03T06:57:17.362Z,1019.82
2018-07-03T06:58:17.381Z,1019.77
2018-07-03T06:59:17.400Z,1019.68
2018-07-03T07:00:17.423Z,1019.64
2018-07-03T07:01:17.444Z,1019.8
2018-07-03T07:02:17.461Z,1019.8
2018-07-03T07:03:17.481Z,1019.75
2018-07-03T07:04:17.505Z,1019.67
2018-07-03T07:05:17.523Z,1019.61
2018-07-03T07:06:17.551Z,1019.55
2018-07-03T07:07:17.562Z,1019.48
2018-07-03T07:08:17.583Z,1019.39
2018-07-03T07:09:17.743Z,1019.34
2018-07-03T07:10:17.623Z,1019.37
2018-07-03T07:11:17.644Z,1019.4
2018-07-03T07:12:17.664Z,1019.49
2018-07-03T07:13:17.684Z,1019.54
2018-07-03T07:14:17.714Z,1019.58
2018-07-03T07:15:17.727Z,1019.55
2018-07-03T07:16:17.753Z,1019.55
2018-07-03T07:17:17.768Z,1019.49
2018-07-03T07:18:17.789Z,1019.53
2018-07-03T07:19:17.813Z,1019.54
2018-07-03T07:20:17.832Z,1019.6
2018-07-03T07:21:17.854Z,1019.63
2018-07-03T07:22:17.873Z,1019.58
2018-07-03T07:23:17.926Z,1019.55
2018-07-03T07:24:17.918Z,1019.55
2018-07-03T07:25:17.937Z,1019.51
2018-07-03T07:26:17.972Z,1019.6
2018-07-03T07:27:17.990Z,1019.61
2018-07-03T07:28:18.001Z,1019.6
2018-07-03T07:29:18.038Z,1019.58
2018-07-03T07:30:18.046Z,1019.49
2018-07-03T07:31:18.068Z,1019.45
2018-07-03T07:32:18.089Z,1019.49
2018-07-03T07:33:18.117Z,1019.54
2018-07-03T07:34:18.174Z,1019.61
2018-07-03T07:35:18.157Z,1019.72
2018-07-03T07:36:18.181Z,1019.74
2018-07-03T07:37:18.199Z,1019.74
2018-07-03T07:38:18.222Z,1019.77
2018-07-03T07:39:18.244Z,1019.84
2018-07-03T07:40:18.267Z,1019.86
2018-07-03T07:41:18.288Z,1019.83
2018-07-03T07:42:18.311Z,1019.96
2018-07-03T07:43:18.333Z,1020.17
2018-07-03T07:44:18.355Z,1020.24
2018-07-03T07:45:18.378Z,1020.35
2018-07-03T07:46:18.400Z,1020.62
2018-07-03T07:47:18.421Z,1020.85
2018-07-03T07:48:18.444Z,1021.16
2018-07-03T07:49:18.466Z,1021.42
2018-07-03T07:50:18.488Z,1021.56
2018-07-03T07:51:18.518Z,1021.6
2018-07-03T07:52:18.534Z,1021.62
2018-07-03T07:53:18.553Z,1021.67
2018-07-03T07:54:18.578Z,1021.78
2018-07-03T07:55:18.595Z,1021.93
2018-07-03T07:56:18.648Z,1022.23
2018-07-03T07:57:18.638Z,1022.43
2018-07-03T07:58:18.656Z,1022.52
2018-07-03T07:59:18.677Z,1022.7
2018-07-03T08:00:18.735Z,1022.85
2018-07-03T08:01:18.717Z,1022.85
2018-07-03T08:02:18.737Z,1022.74
2018-07-03T08:03:18.757Z,1022.67
2018-07-03T08:04:18.775Z,1022.66
2018-07-03T08:05:18.797Z,1022.65
2018-07-03T08:06:18.820Z,1022.62
2018-07-03T08:07:18.833Z,1022.62
2018-07-03T08:08:18.854Z,1022.63
2018-07-03T08:09:18.870Z,1022.6
2018-07-03T08:10:18.900Z,1022.55
2018-07-03T08:11:18.906Z,1022.46
2018-07-03T08:12:18.929Z,1022.42
2018-07-03T08:13:18.965Z,1022.32
2018-07-03T08:14:18.963Z,1022.29
2018-07-03T08:15:18.978Z,1022.2
2018-07-03T08:16:19.002Z,1022.21
2018-07-03T08:17:19.014Z,1022.2
2018-07-03T08:18:19.032Z,1022.12
2018-07-03T08:19:19.049Z,1022.14
2018-07-03T08:20:19.067Z,1022.2
2018-07-03T08:21:19.087Z,1022.24
2018-07-03T08:22:19.114Z,1022.58
2018-07-03T08:23:19.119Z,1022.63
2018-07-03T08:24:19.136Z,1022.66
2018-07-03T08:25:19.169Z,1022.63
2018-07-03T08:26:19.173Z,1022.43
2018-07-03T08:27:19.187Z,1022.31
2018-07-03T08:28:19.204Z,1022.26
2018-07-03T08:29:19.229Z,1022.26
2018-07-03T08:30:19.254Z,1022.34
2018-07-03T08:31:19.254Z,1022.36
2018-07-03T08:32:19.324Z,1022.37
2018-07-03T08:33:19.286Z,1022.34
2018-07-03T08:34:19.303Z,1022.28
2018-07-03T08:35:19.319Z,1022.19
2018-07-03T08:36:19.336Z,1022.11
2018-07-03T08:37:19.353Z,1022.1
2018-07-03T08:38:19.380Z,1022.18
2018-07-03T08:39:19.389Z,1022.2
2018-07-03T08:40:19.402Z,1022.23
2018-07-03T08:41:19.416Z,1022.18
2018-07-03T08:42:19.432Z,1022.21
2018-07-03T08:43:19.449Z,1022.25
2018-07-03T08:44:19.464Z,1022.32
2018-07-03T08:45:19.480Z,1022.39
2018-07-03T08:46:19.496Z,1022.35
2018-07-03T08:47:19.513Z,1022.29
2018-07-03T08:48:19.566Z,1022.19
2018-07-03T08:49:19.547Z,1022.18
2018-07-03T08:50:19.558Z,1022.07
2018-07-03T08:51:19.573Z,1022.04
2018-07-03T08:52:19.591Z,1021.98
2018-07-03T08:53:19.603Z,1021.95
2018-07-03T08:54:19.627Z,1021.96
2018-07-03T08:55:19.635Z,1021.83
2018-07-03T08:56:19.656Z,1021.83
2018-07-03T08:57:19.665Z,1021.8
2018-07-03T08:58:19.741Z,1021.81
2018-07-03T08:59:19.694Z,1022.26
2018-07-03T09:00:19.708Z,1023.14
2018-07-03T09:01:19.723Z,1024.02
2018-07-03T09:02:19.738Z,1024.63
2018-07-03T09:03:19.752Z,1025.15
2018-07-03T09:05:19.780Z,1026.13
2018-07-03T09:06:19.796Z,1026.54
2018-07-03T09:07:19.806Z,1026.96
2018-07-03T09:08:19.824Z,1027.23
2018-07-03T09:09:19.844Z,1027.43
2018-07-03T09:10:19.842Z,1027.53
2018-07-03T09:11:19.857Z,1027.66
2018-07-03T09:12:19.867Z,1027.83
2018-07-03T09:13:19.875Z,1027.87
2018-07-03T09:14:19.883Z,1027.94
2018-07-03T09:15:19.893Z,1028.08
2018-07-03T09:16:19.910Z,1028.23
2018-07-03T09:17:19.911Z,1028.37
2018-07-03T09:18:19.921Z,1028.42
2018-07-03T09:19:19.935Z,1028.5
2018-07-03T09:20:19.940Z,1028.59
2018-07-03T09:21:19.947Z,1028.81
2018-07-03T09:22:19.953Z,1028.76
2018-07-03T09:23:19.964Z,1028.84
2018-07-03T09:24:19.968Z,1028.85
2018-07-03T09:25:19.977Z,1028.93
2018-07-03T09:26:19.980Z,1029.04
2018-07-03T09:27:19.987Z,1029.01
2018-07-03T09:29:19.998Z,1029.19
2018-07-03T09:30:20.026Z,1029.29
2018-07-03T09:32:20.015Z,1029.28
2018-07-03T09:33:20.022Z,1029.26
2018-07-03T09:34:20.023Z,1029.22
2018-07-03T09:35:20.027Z,1029.29
2018-07-03T09:40:20.044Z,1029.37
2018-07-03T09:41:20.048Z,1029.46
2018-07-03T09:42:20.052Z,1029.46
2018-07-03T09:43:20.052Z,1029.43
2018-07-03T09:44:20.059Z,1029.48
2018-07-03T09:45:20.060Z,1029.54
2018-07-03T09:46:20.060Z,1029.5
2018-07-03T09:47:20.067Z,1029.53
2018-07-03T09:48:20.065Z,1029.53
2018-07-03T09:49:20.068Z,1029.47
2018-07-03T09:50:20.070Z,1029.51
2018-07-03T09:51:20.072Z,1029.44
2018-07-03T09:52:20.079Z,1029.43
2018-07-03T09:53:20.078Z,1029.39
2018-07-03T09:54:20.084Z,1029.39
2018-07-03T09:55:20.083Z,1029.4
2018-07-03T09:56:20.084Z,1029.39
2018-07-03T09:57:20.087Z,1029.39
2018-07-03T09:58:20.091Z,1029.38
2018-07-03T09:59:20.092Z,1029.33
2018-07-03T10:00:20.104Z,1029.25
2018-07-03T10:01:20.094Z,1029.31
2018-07-03T10:02:20.097Z,1029.29
2018-07-03T10:03:20.099Z,1029.29
2018-07-03T10:04:20.103Z,1029.28
2018-07-03T10:05:20.104Z,1029.3
2018-07-03T10:06:20.106Z,1029.3
2018-07-03T10:07:20.110Z,1029.26
2018-07-03T10:08:20.114Z,1029.26
2018-07-03T10:09:20.111Z,1029.16
2018-07-03T10:10:20.115Z,1029.22
2018-07-03T10:11:20.117Z,1029.2
2018-07-03T10:12:20.118Z,1029.21
2018-07-03T10:13:20.120Z,1029.14
2018-07-03T10:14:20.122Z,1029.2
2018-07-03T10:15:20.128Z,1029.14
2018-07-03T10:16:20.148Z,1029.22
2018-07-03T10:17:20.130Z,1029.15
2018-07-03T10:18:20.130Z,1029.12
2018-07-03T10:19:20.131Z,1029.16
2018-07-03T10:20:20.135Z,1029.17
2018-07-03T10:21:20.137Z,1029.18
2018-07-03T10:22:20.141Z,1029.16
2018-07-03T10:23:20.140Z,1029.11
2018-07-03T10:24:20.142Z,1029.07
2018-07-03T10:25:20.148Z,1029.09
2018-07-03T10:26:20.149Z,1029.02
2018-07-03T10:27:20.149Z,1029.05
2018-07-03T10:28:20.151Z,1028.97
2018-07-03T10:29:20.153Z,1028.93
2018-07-03T10:30:20.155Z,1028.92
2018-07-03T10:31:20.181Z,1028.89
2018-07-03T10:32:20.166Z,1028.89
2018-07-03T10:33:20.174Z,1028.81
2018-07-03T10:34:20.162Z,1028.79
2018-07-03T10:35:20.165Z,1028.73
2018-07-03T10:36:20.169Z,1028.7
2018-07-03T10:37:20.169Z,1028.78
2018-07-03T10:38:20.176Z,1028.78
2018-07-03T10:39:20.174Z,1028.78
2018-07-03T10:40:20.175Z,1028.69
2018-07-03T10:52:20.189Z,1028.8
2018-07-03T10:53:20.190Z,1028.88
2018-07-03T10:54:20.190Z,1028.84
2018-07-03T10:55:20.190Z,1028.86
2018-07-03T10:56:20.197Z,1028.76
2018-07-03T10:57:20.191Z,1028.74
2018-07-03T10:58:20.192Z,1028.76
2018-07-03T10:59:20.199Z,1028.74
2018-07-03T11:00:20.197Z,1028.73
2018-07-03T11:01:20.196Z,1028.74
2018-07-03T11:02:20.202Z,1028.73
2018-07-03T11:03:20.198Z,1028.72
2018-07-03T11:04:20.204Z,1028.71
2018-07-03T11:05:20.202Z,1028.67
2018-07-03T11:06:20.209Z,1028.61
2018-07-03T11:07:20.204Z,1028.6
2018-07-03T11:08:20.208Z,1028.6
2018-07-03T11:09:20.208Z,1028.56
2018-07-03T11:10:20.217Z,1028.5
2018-07-03T11:11:20.211Z,1028.51
2018-07-03T11:12:20.215Z,1028.47
2018-07-03T11:13:20.215Z,1028.44
2018-07-03T11:14:20.219Z,1028.57
2018-07-03T11:15:20.220Z,1028.51
2018-07-03T11:16:20.221Z,1028.53
2018-07-03T11:17:20.226Z,1028.63
2018-07-03T11:18:20.225Z,1028.57
2018-07-03T11:19:20.226Z,1028.65
2018-07-03T11:20:20.228Z,1028.52
2018-07-03T11:21:20.230Z,1028.52
2018-07-03T11:22:20.232Z,1028.58
2018-07-03T11:23:20.234Z,1028.56
2018-07-03T11:24:20.240Z,1028.44
2018-07-03T11:25:20.240Z,1028.48
2018-07-03T11:26:20.240Z,1028.52
2018-07-03T11:27:20.242Z,1028.43
2018-07-03T11:28:20.244Z,1028.4
2018-07-03T11:29:20.248Z,1028.38
2018-07-03T11:30:20.248Z,1028.51
2018-07-03T11:31:20.249Z,1028.41
2018-07-03T11:32:20.251Z,1028.35
2018-07-03T11:33:20.254Z,1028.33
2018-07-03T11:34:20.256Z,1028.3
2018-07-03T11:35:20.262Z,1028.29
2018-07-03T11:36:20.264Z,1028.33
2018-07-03T11:37:20.270Z,1028.3
2018-07-03T11:38:20.266Z,1028.26
2018-07-03T11:39:20.266Z,1028.21
2018-07-03T11:40:20.267Z,1028.2
2018-07-03T11:41:20.270Z,1028.21
2018-07-03T11:42:20.271Z,1028.24
2018-07-03T11:43:20.281Z,1028.27
2018-07-03T11:44:20.275Z,1028.21
2018-07-03T11:45:20.280Z,1028.22
2018-07-03T11:46:20.286Z,1028.2
2018-07-03T11:47:20.281Z,1028.25
2018-07-03T11:48:20.283Z,1028.16
2018-07-03T11:49:20.297Z,1028.19
2018-07-03T11:50:20.287Z,1028.24
2018-07-03T11:51:20.290Z,1028.21
2018-07-03T11:52:20.294Z,1028.16
2018-07-03T11:53:20.294Z,1028.16
2018-07-03T11:54:20.297Z,1028.1
2018-07-03T11:55:20.297Z,1028.12
2018-07-03T11:56:20.301Z,1027.93
2018-07-03T11:57:20.302Z,1028.04
2018-07-03T11:58:20.307Z,1028.07
2018-07-03T11:59:20.307Z,1028.09
2018-07-03T12:00:20.308Z,1028.1
2018-07-03T12:01:20.372Z,1028.07
2018-07-03T12:02:20.316Z,1028.03
2018-07-03T12:03:20.319Z,1028.04
2018-07-03T12:04:20.317Z,1028.03
2018-07-03T12:05:20.319Z,1027.96
2018-07-03T12:06:20.323Z,1027.98
2018-07-03T12:07:20.324Z,1027.97
2018-07-03T12:08:20.326Z,1027.87
2018-07-03T12:09:20.326Z,1027.84
2018-07-03T12:10:20.329Z,1027.78
2018-07-03T12:11:20.371Z,1027.78
2018-07-03T12:12:20.337Z,1027.78
2018-07-03T12:13:20.336Z,1027.79
2018-07-03T12:14:20.338Z,1027.75
2018-07-03T12:15:20.343Z,1027.7
2018-07-03T12:16:20.342Z,1027.74
2018-07-03T12:17:20.344Z,1027.73
2018-07-03T12:18:20.348Z,1027.68
2018-07-03T12:19:20.350Z,1027.66
2018-07-03T12:20:20.352Z,1027.69
2018-07-03T12:21:20.354Z,1027.72
2018-07-03T12:22:20.361Z,1027.69
2018-07-03T12:23:20.359Z,1027.64
2018-07-03T12:24:20.362Z,1027.67
2018-07-03T12:42:20.375Z,1027.89
2018-07-03T12:43:20.408Z,1027.83
2018-07-03T12:44:20.375Z,1027.89
2018-07-03T12:45:20.375Z,1027.89
2018-07-03T12:46:20.375Z,1027.89
2018-07-03T12:47:20.378Z,1027.84
2018-07-03T12:48:20.379Z,1027.85
2018-07-03T12:49:20.376Z,1027.86